Terminal Aerodrome Forecast
Issued by NWS Billings, MT

Home | Current Version | Previous Version | Text Only | Print | Product List | Glossary Off
Versions: 1 2 3 4 5 6 7 8 9 10 11 12 13 14 15 16 17 18 19 20 21 22 23 24 25 26 27 28 29 30 31 32

000
FTUS45 KBYZ 310031 AAA
TAFMLS
TAF AMD
KMLS 310031Z 3101/3124 VRB06KT P6SM VCTS SCT100CB BKN200
     FM310400 22015G25KT P6SM VCSH BKN080
     FM310700 32025G35KT P6SM SCT100
     FM311200 28012KT P6SM FEW100
     FM311800 24009KT P6SM FEW100=

USA.gov is the U.S. government's official web portal to all federal, state and local government web resources and services.